Time;durP1;ratioP1;P1;durP2;ratioP2;P2;SDS_P1;SDS_P2;PMS_P1;PMS_P2;Temp;Humidity;BMP_temperature;BMP_pressure;BME280_temperature;BME280_humidity;BME280_pressure;Samples;Min_cycle;Max_cycle;Signal;HPM_P1;HPM_P2
2022/09/15 00:00:52;;;;;;;31.58;6.03;;;;;;;19.82;100.00;96900.03;5035297;28;20085;-54
2022/09/15 00:03:19;;;;;;;33.10;6.05;;;;;;;19.88;100.00;96897.78;5033367;28;20154;-55
2022/09/15 00:05:44;;;;;;;44.53;6.90;;;;;;;19.86;100.00;96902.38;5036547;28;20037;-55
2022/09/15 00:08:12;;;;;;;35.45;5.68;;;;;;;19.89;100.00;96902.06;5032483;28;20032;-55
2022/09/15 00:10:38;;;;;;;30.90;5.55;;;;;;;19.66;100.00;96910.38;5034358;28;20138;-56
2022/09/15 00:13:04;;;;;;;27.80;5.30;;;;;;;19.81;100.00;96922.19;5037503;28;20039;-55
2022/09/15 00:15:30;;;;;;;31.17;5.47;;;;;;;19.90;100.00;96915.16;5036801;28;20061;-54
2022/09/15 00:17:55;;;;;;;32.47;6.13;;;;;;;19.66;100.00;96920.97;5022299;28;20040;-57
2022/09/15 00:20:21;;;;;;;30.65;5.55;;;;;;;19.69;100.00;96911.91;5033709;28;20021;-55
2022/09/15 00:22:48;;;;;;;30.65;6.00;;;;;;;19.75;100.00;96914.00;5021232;28;20494;-56
2022/09/15 00:25:14;;;;;;;27.25;5.05;;;;;;;19.94;100.00;96913.06;5037816;28;20028;-56
2022/09/15 00:27:39;;;;;;;27.95;5.40;;;;;;;20.31;100.00;96896.22;5033618;28;20030;-58
2022/09/15 00:30:06;;;;;;;33.03;5.65;;;;;;;19.73;100.00;96900.91;5039278;28;20041;-56
2022/09/15 00:32:32;;;;;;;30.58;5.60;;;;;;;19.93;100.00;96901.66;5032942;28;20522;-56
2022/09/15 00:34:57;;;;;;;31.88;6.05;;;;;;;19.59;100.00;96893.44;5036543;28;20061;-55
2022/09/15 00:37:23;;;;;;;36.38;6.00;;;;;;;19.47;100.00;96894.63;5034005;28;20128;-55
2022/09/15 00:39:48;;;;;;;29.10;5.22;;;;;;;19.58;100.00;96892.59;5039268;28;20124;-55
2022/09/15 00:42:16;;;;;;;32.33;5.75;;;;;;;19.70;100.00;96895.88;5035140;28;20029;-55
2022/09/15 00:44:46;;;;;;;34.72;5.68;;;;;;;19.65;100.00;96895.50;5037961;28;20785;-55
2022/09/15 00:47:11;;;;;;;35.22;6.30;;;;;;;19.51;100.00;96898.63;5039137;28;20081;-55
2022/09/15 00:49:39;;;;;;;35.90;6.30;;;;;;;19.73;100.00;96908.84;5034603;28;20130;-55
2022/09/15 00:52:10;;;;;;;28.77;5.53;;;;;;;19.79;100.00;96897.66;5029197;28;20041;-55
2022/09/15 00:54:55;;;;;;;44.80;7.20;;;;;;;20.23;100.00;96892.53;5034767;28;20116;-54
2022/09/15 00:57:47;;;;;;;28.63;5.70;;;;;;;19.69;100.00;96888.13;5032585;28;20883;-55
2022/09/15 01:00:15;;;;;;;36.75;6.50;;;;;;;19.60;100.00;96879.25;5038872;28;20464;-55
2022/09/15 01:02:43;;;;;;;32.50;5.60;;;;;;;20.14;100.00;96882.00;5035184;28;20121;-58
2022/09/15 01:05:11;;;;;;;38.50;6.43;;;;;;;20.08;100.00;96886.09;5033216;28;20033;-57
2022/09/15 01:07:42;;;;;;;27.73;5.10;;;;;;;19.94;100.00;96891.88;5036312;28;20020;-55
2022/09/15 01:10:17;;;;;;;32.13;5.25;;;;;;;19.93;100.00;96887.59;5033581;28;20032;-57
2022/09/15 01:12:43;;;;;;;33.28;6.10;;;;;;;20.01;100.00;96885.00;5040022;28;20025;-55
2022/09/15 01:15:08;;;;;;;33.33;5.82;;;;;;;19.92;100.00;96883.25;5039401;28;20020;-55
2022/09/15 01:17:58;;;;;;;28.67;5.47;;;;;;;19.73;100.00;96877.09;5037213;28;20623;-55
2022/09/15 01:21:03;;;;;;;31.85;5.57;;;;;;;19.80;100.00;96880.84;5037887;28;20025;-55
2022/09/15 01:23:54;;;;;;;29.25;5.28;;;;;;;20.01;100.00;96867.31;5037849;28;20052;-55
2022/09/15 01:26:37;;;;;;;32.65;6.15;;;;;;;20.18;100.00;96868.34;5031499;28;20133;-55
2022/09/15 01:29:33;;;;;;;40.22;6.82;;;;;;;19.98;100.00;96861.53;5033722;28;20029;-55
2022/09/15 01:35:09;;;;;;;41.55;7.15;;;;;;;19.62;100.00;96866.69;5034679;28;20059;-56
2022/09/15 01:37:40;;;;;;;37.55;6.20;;;;;;;19.56;100.00;96868.13;5036359;28;20056;-56
2022/09/15 01:40:09;;;;;;;42.17;6.50;;;;;;;19.57;100.00;96866.31;5034375;28;20048;-55
2022/09/15 01:42:36;;;;;;;26.73;5.25;;;;;;;19.63;100.00;96857.78;5034800;28;20185;-55
2022/09/15 01:45:18;;;;;;;29.25;5.85;;;;;;;20.00;100.00;96864.84;5032505;28;20037;-56
2022/09/15 01:47:47;;;;;;;28.65;5.45;;;;;;;19.91;100.00;96865.75;5030813;28;20048;-56
2022/09/15 01:50:19;;;;;;;39.60;6.72;;;;;;;20.15;100.00;96857.22;5033828;28;20684;-55
2022/09/15 01:52:48;;;;;;;35.80;6.35;;;;;;;20.12;100.00;96858.31;5035819;28;20030;-55
2022/09/15 01:55:21;;;;;;;31.42;6.28;;;;;;;20.11;100.00;96856.69;5034457;28;20033;-55
2022/09/15 01:57:46;;;;;;;37.17;6.55;;;;;;;19.98;100.00;96850.94;5033729;28;20079;-57
2022/09/15 02:00:12;;;;;;;31.98;5.55;;;;;;;20.00;100.00;96860.38;5036113;28;20029;-55
2022/09/15 02:02:48;;;;;;;34.30;5.57;;;;;;;20.54;100.00;96857.72;5036547;28;20039;-55
2022/09/15 02:05:24;;;;;;;35.45;6.68;;;;;;;19.88;100.00;96860.75;5021089;28;20068;-57
2022/09/15 02:08:11;;;;;;;27.75;5.93;;;;;;;20.10;100.00;96854.19;5036606;28;20036;-56
2022/09/15 02:11:03;;;;;;;38.47;7.00;;;;;;;19.99;100.00;96850.75;5034955;28;20041;-55
2022/09/15 02:13:41;;;;;;;45.45;6.38;;;;;;;20.51;100.00;96836.84;5033750;28;20033;-56
2022/09/15 02:16:18;;;;;;;36.10;6.30;;;;;;;19.88;100.00;96844.84;5033639;28;20037;-56
2022/09/15 02:19:30;;;;;;;38.58;7.07;;;;;;;19.95;100.00;96848.56;5036646;28;20383;-55
2022/09/15 02:22:09;;;;;;;32.25;6.10;;;;;;;20.05;100.00;96844.03;4943847;28;20552;-54
2022/09/15 02:24:41;;;;;;;35.90;6.53;;;;;;;20.08;100.00;96838.44;5030767;28;20116;-56
2022/09/15 02:27:14;;;;;;;34.10;5.72;;;;;;;20.47;100.00;96830.16;5038955;28;20044;-55
2022/09/15 02:29:42;;;;;;;32.78;6.63;;;;;;;20.23;100.00;96836.09;5040240;28;20895;-55
2022/09/15 02:32:10;;;;;;;33.50;6.55;;;;;;;20.12;100.00;96831.84;5036426;28;20475;-54
2022/09/15 02:34:40;;;;;;;33.28;5.68;;;;;;;20.51;100.00;96831.56;5019424;28;20091;-56
2022/09/15 02:37:08;;;;;;;32.25;6.72;;;;;;;19.93;100.00;96837.31;5035028;28;21057;-55
2022/09/15 02:39:38;;;;;;;33.92;7.10;;;;;;;19.74;100.00;96836.47;5041704;28;20492;-55
2022/09/15 02:42:04;;;;;;;37.40;6.82;;;;;;;19.90;100.00;96832.31;5039362;28;20124;-59
2022/09/15 02:44:30;;;;;;;30.48;5.72;;;;;;;20.33;100.00;96834.22;5040251;28;20415;-56
2022/09/15 02:46:57;;;;;;;35.03;6.10;;;;;;;20.37;100.00;96829.44;5044200;28;20560;-58
2022/09/15 02:49:23;;;;;;;38.70;7.18;;;;;;;20.43;100.00;96834.13;5022032;28;20029;-58
2022/09/15 02:51:48;;;;;;;52.20;8.98;;;;;;;19.81;100.00;96819.00;5035741;28;20032;-55
2022/09/15 02:54:14;;;;;;;46.92;8.18;;;;;;;20.17;100.00;96821.66;5040351;28;20029;-55
2022/09/15 02:56:39;;;;;;;36.10;6.63;;;;;;;20.36;100.00;96822.47;5017346;28;20801;-56
2022/09/15 02:59:05;;;;;;;37.15;6.82;;;;;;;20.03;100.00;96816.88;5040633;28;20035;-56
2022/09/15 03:01:31;;;;;;;35.45;6.45;;;;;;;20.12;100.00;96813.31;5036050;28;20136;-55
2022/09/15 03:03:57;;;;;;;39.72;6.65;;;;;;;20.05;100.00;96820.22;5040187;28;20033;-56
2022/09/15 03:06:23;;;;;;;36.33;6.00;;;;;;;20.04;100.00;96826.50;5036544;28;20049;-57
2022/09/15 03:08:49;;;;;;;23.95;5.15;;;;;;;20.16;100.00;96817.34;5035239;28;20060;-55
2022/09/15 03:11:15;;;;;;;32.03;5.88;;;;;;;20.27;100.00;96823.38;5035544;28;20048;-56
2022/09/15 03:13:41;;;;;;;29.50;5.50;;;;;;;20.30;100.00;96815.16;5037589;28;20107;-56
2022/09/15 03:16:11;;;;;;;31.15;5.85;;;;;;;19.72;100.00;96819.03;5037060;28;20032;-57
2022/09/15 03:18:38;;;;;;;31.85;5.80;;;;;;;19.91;100.00;96818.94;5040254;28;20048;-60
2022/09/15 03:21:05;;;;;;;45.80;7.38;;;;;;;19.59;100.00;96814.09;5042428;28;20036;-57
2022/09/15 03:23:31;;;;;;;34.53;6.82;;;;;;;19.40;100.00;96815.88;5026672;28;20083;-55
2022/09/15 03:25:58;;;;;;;35.70;6.80;;;;;;;26.13;100.00;96904.31;5036403;28;20044;-55
2022/09/15 03:28:24;;;;;;;47.75;8.27;;;;;;;21.53;100.00;96784.91;5023848;28;20094;-56
2022/09/15 03:30:49;;;;;;;35.55;6.95;;;;;;;21.33;100.00;96791.47;5021297;28;20033;-55
2022/09/15 03:33:15;;;;;;;33.10;6.35;;;;;;;21.40;100.00;96795.13;5038521;28;20496;-55
2022/09/15 03:35:40;;;;;;;35.03;6.60;;;;;;;21.31;100.00;96780.19;5034075;28;20049;-56
2022/09/15 03:38:05;;;;;;;31.45;6.32;;;;;;;20.79;100.00;96781.09;5036433;28;20024;-55
2022/09/15 03:40:32;;;;;;;44.55;7.22;;;;;;;20.79;100.00;96786.41;5037339;28;20740;-56
2022/09/15 03:42:58;;;;;;;34.00;6.93;;;;;;;20.82;100.00;96785.25;5035643;28;20040;-57
2022/09/15 03:45:23;;;;;;;33.22;6.47;;;;;;;20.78;100.00;96772.31;5035966;28;20037;-56
2022/09/15 03:47:49;;;;;;;37.15;7.10;;;;;;;20.55;100.00;96784.41;5033679;28;20103;-54
2022/09/15 03:50:14;;;;;;;30.80;5.82;;;;;;;21.44;100.00;96774.44;5033287;28;20666;-56
2022/09/15 03:52:39;;;;;;;39.08;7.07;;;;;;;20.59;100.00;96775.97;5035978;28;20018;-55
2022/09/15 03:55:05;;;;;;;31.77;6.57;;;;;;;20.61;100.00;96767.91;5032832;28;20438;-55
2022/09/15 03:57:30;;;;;;;34.97;6.50;;;;;;;20.78;100.00;96779.44;5038441;28;20121;-55
2022/09/15 03:59:56;;;;;;;37.38;6.20;;;;;;;20.36;100.00;96772.16;5034461;28;20033;-56
2022/09/15 04:02:21;;;;;;;33.65;6.30;;;;;;;20.25;100.00;96783.00;5036428;28;20036;-55
2022/09/15 04:04:48;;;;;;;27.35;5.40;;;;;;;20.68;100.00;96774.25;5038704;28;20061;-55
2022/09/15 04:07:13;;;;;;;26.17;5.40;;;;;;;20.48;100.00;96773.59;5035715;28;20041;-55
2022/09/15 04:09:39;;;;;;;29.73;5.78;;;;;;;20.68;100.00;96774.25;5039214;28;20032;-55
2022/09/15 04:12:04;;;;;;;35.10;6.25;;;;;;;20.62;100.00;96779.31;5039616;28;20414;-54
2022/09/15 04:14:30;;;;;;;36.58;6.43;;;;;;;20.55;100.00;96774.63;5039302;28;20710;-55
2022/09/15 04:16:55;;;;;;;38.65;6.35;;;;;;;20.40;100.00;96768.22;5038915;28;20037;-56
2022/09/15 04:19:20;;;;;;;35.40;5.75;;;;;;;20.76;100.00;96771.63;5035318;28;20029;-57
2022/09/15 04:21:46;;;;;;;33.13;5.60;;;;;;;20.44;100.00;96758.13;5038920;28;20071;-55
2022/09/15 04:24:12;;;;;;;37.15;6.18;;;;;;;20.96;100.00;96758.16;5037115;28;20123;-56
2022/09/15 04:26:38;;;;;;;28.40;5.32;;;;;;;20.71;100.00;96754.53;5035609;28;20068;-55
2022/09/15 04:29:10;;;;;;;34.85;6.18;;;;;;;21.05;100.00;96759.03;5036737;28;20021;-56
2022/09/15 04:31:35;;;;;;;;;;;;;;;20.77;100.00;96745.97;5038394;28;20156;-54
2022/09/15 04:34:01;;;;;;;33.30;5.40;;;;;;;21.02;100.00;96759.34;5036720;28;19913;-57
2022/09/15 04:36:27;;;;;;;33.70;6.18;;;;;;;20.77;100.00;96762.72;5036782;28;20372;-56
2022/09/15 04:38:54;;;;;;;47.22;7.03;;;;;;;20.74;100.00;96757.72;5035643;28;20124;-55
2022/09/15 04:41:19;;;;;;;50.03;7.47;;;;;;;21.13;100.00;96748.44;5036136;28;20594;-55
2022/09/15 04:43:45;;;;;;;28.63;6.13;;;;;;;21.32;100.00;96750.84;5037885;28;20036;-55
2022/09/15 04:46:12;;;;;;;39.88;6.88;;;;;;;21.45;100.00;96750.44;5039166;28;20125;-55
2022/09/15 04:48:38;;;;;;;36.33;6.88;;;;;;;21.59;100.00;96748.94;5037643;28;20058;-56
2022/09/15 04:51:06;;;;;;;36.47;7.63;;;;;;;21.22;100.00;96744.84;5031429;28;20033;-57
2022/09/15 04:53:31;;;;;;;51.63;10.82;;;;;;;20.67;100.00;96758.50;5036154;28;20055;-54
2022/09/15 04:56:08;;;;;;;58.95;11.70;;;;;;;20.69;100.00;96752.03;5033965;28;20044;-56
2022/09/15 04:58:44;;;;;;;50.95;10.38;;;;;;;20.59;100.00;96754.78;5034641;28;20033;-55
2022/09/15 05:01:21;;;;;;;44.08;9.85;;;;;;;20.75;100.00;96753.22;5033282;28;20057;-55
2022/09/15 05:03:47;;;;;;;44.55;9.13;;;;;;;20.20;100.00;96749.88;5034816;28;20024;-56
2022/09/15 05:06:16;;;;;;;47.30;9.30;;;;;;;20.32;100.00;96757.56;5038605;28;20041;-56
2022/09/15 05:08:41;;;;;;;48.65;7.95;;;;;;;20.53;100.00;96759.84;5035566;28;20021;-56
2022/09/15 05:11:10;;;;;;;40.88;7.53;;;;;;;20.58;100.00;96761.03;5038888;28;20445;-55
2022/09/15 05:13:36;;;;;;;38.25;6.68;;;;;;;20.88;100.00;96758.97;5035989;28;20124;-55
2022/09/15 05:16:06;;;;;;;35.22;6.50;;;;;;;20.49;100.00;96758.50;5035025;28;20037;-55
2022/09/15 05:18:32;;;;;;;32.35;5.78;;;;;;;21.11;100.00;96750.44;5036605;28;20089;-56
2022/09/15 05:20:59;;;;;;;38.70;6.57;;;;;;;21.15;100.00;96749.13;5034929;28;20041;-56
2022/09/15 05:23:25;;;;;;;44.08;6.80;;;;;;;20.38;100.00;96762.25;5035768;28;21025;-55
2022/09/15 05:25:55;;;;;;;34.10;6.00;;;;;;;20.75;100.00;96769.97;5035650;28;20577;-57
2022/09/15 05:28:20;;;;;;;28.08;5.47;;;;;;;20.71;100.00;96765.13;5035873;28;20032;-55
2022/09/15 05:30:46;;;;;;;35.60;5.82;;;;;;;20.47;100.00;96763.97;5037259;28;20091;-56
2022/09/15 05:33:11;;;;;;;27.70;5.05;;;;;;;20.94;100.00;96758.31;5039366;28;20505;-55
2022/09/15 05:35:36;;;;;;;29.98;5.15;;;;;;;20.89;100.00;96768.56;5036613;28;20052;-55
2022/09/15 05:38:02;;;;;;;36.08;5.70;;;;;;;20.97;100.00;96758.00;5034550;28;20051;-56
2022/09/15 05:40:27;;;;;;;31.15;5.10;;;;;;;20.67;100.00;96769.09;5014739;28;20037;-54
2022/09/15 05:42:53;;;;;;;36.95;5.75;;;;;;;20.38;100.00;96767.53;5036516;28;20033;-55
2022/09/15 05:45:18;;;;;;;26.85;4.95;;;;;;;20.44;100.00;96772.22;5034306;28;20096;-55
2022/09/15 05:47:43;;;;;;;30.65;5.13;;;;;;;20.43;100.00;96765.25;5032719;28;20017;-56
2022/09/15 05:50:09;;;;;;;33.97;5.75;;;;;;;20.69;100.00;96769.78;5040367;28;20013;-56
2022/09/15 05:52:36;;;;;;;31.33;5.25;;;;;;;20.80;100.00;96766.84;5043884;28;20028;-56
2022/09/15 05:55:01;;;;;;;32.03;5.85;;;;;;;20.61;100.00;96765.25;5042003;28;20466;-58
2022/09/15 05:57:27;;;;;;;36.20;5.60;;;;;;;20.39;100.00;96763.91;5039425;28;20794;-55
2022/09/15 05:59:52;;;;;;;31.85;5.53;;;;;;;20.34;100.00;96766.19;5038425;28;20034;-56
2022/09/15 06:02:17;;;;;;;40.20;6.38;;;;;;;21.04;100.00;96760.00;5039919;28;20037;-55
2022/09/15 06:04:43;;;;;;;34.67;5.38;;;;;;;20.87;100.00;96757.28;5041436;28;20029;-55
2022/09/15 06:07:08;;;;;;;34.20;5.93;;;;;;;20.75;100.00;96761.19;5040908;28;20135;-55
2022/09/15 06:09:34;;;;;;;39.47;6.72;;;;;;;20.42;100.00;96763.63;5039349;28;20039;-55
2022/09/15 06:11:59;;;;;;;38.53;6.97;;;;;;;20.03;100.00;96769.25;5034573;28;20047;-54
2022/09/15 06:14:24;;;;;;;43.63;7.22;;;;;;;20.34;100.00;96766.19;5037098;28;20037;-54
2022/09/15 06:16:50;;;;;;;41.70;6.78;;;;;;;20.21;100.00;96764.75;5037931;28;20037;-54
2022/09/15 06:19:15;;;;;;;34.33;6.35;;;;;;;20.17;100.00;96760.78;5038669;28;20029;-54
2022/09/15 06:21:40;;;;;;;33.22;6.57;;;;;;;20.39;100.00;96758.63;5034729;28;20052;-54
2022/09/15 06:24:06;;;;;;;34.55;6.38;;;;;;;20.63;100.00;96757.16;5036233;28;20041;-55
2022/09/15 06:26:32;;;;;;;34.28;6.20;;;;;;;20.20;100.00;96752.53;5036640;28;20055;-54
2022/09/15 06:29:02;;;;;;;36.92;6.15;;;;;;;20.50;100.00;96755.72;5035908;28;20036;-54
2022/09/15 06:31:30;;;;;;;34.53;5.82;;;;;;;20.44;100.00;96750.19;5038852;28;20633;-54
2022/09/15 06:33:56;;;;;;;32.55;6.20;;;;;;;20.28;100.00;96756.22;5041113;28;20036;-55
2022/09/15 06:36:25;;;;;;;31.58;5.75;;;;;;;20.42;100.00;96753.03;5036675;28;20048;-55
2022/09/15 06:38:50;;;;;;;49.45;7.45;;;;;;;20.25;100.00;96753.88;5040238;28;20059;-57
2022/09/15 06:41:16;;;;;;;35.22;5.97;;;;;;;20.22;100.00;96755.84;5037361;28;20124;-56
2022/09/15 06:43:41;;;;;;;38.72;6.45;;;;;;;20.21;100.00;96767.41;5041082;28;20085;-54
2022/09/15 06:46:08;;;;;;;29.02;6.20;;;;;;;20.88;100.00;96763.41;5036237;28;20041;-55
2022/09/15 06:48:34;;;;;;;35.72;6.35;;;;;;;20.14;100.00;96761.06;5037907;28;20035;-54
2022/09/15 06:51:01;;;;;;;37.97;6.10;;;;;;;20.34;100.00;96768.84;5038912;28;20955;-54
2022/09/15 06:53:30;;;;;;;29.83;5.53;;;;;;;20.64;100.00;96775.56;5038528;28;20525;-55
2022/09/15 06:56:04;;;;;;;39.40;6.53;;;;;;;20.13;100.00;96774.47;5034093;28;20030;-55
2022/09/15 06:58:31;;;;;;;36.38;6.03;;;;;;;20.81;100.00;96771.16;5035586;28;20047;-55
2022/09/15 07:01:11;;;;;;;42.47;6.93;;;;;;;20.52;100.00;96774.94;5036712;28;20033;-58
2022/09/15 07:03:37;;;;;;;23.67;4.70;;;;;;;20.45;100.00;96768.59;5034225;28;20168;-59
2022/09/15 07:06:04;;;;;;;35.15;6.03;;;;;;;20.33;100.00;96768.00;5035119;28;20095;-58
2022/09/15 07:08:30;;;;;;;24.60;5.00;;;;;;;20.54;100.00;96778.25;5041280;28;20024;-58
2022/09/15 07:10:55;;;;;;;33.33;5.53;;;;;;;21.22;100.00;96781.97;5007387;28;20459;-56
2022/09/15 07:13:21;;;;;;;24.50;4.90;;;;;;;21.20;100.00;96770.69;5038700;28;20036;-58
2022/09/15 07:15:55;;;;;;;27.42;4.80;;;;;;;20.64;100.00;96798.53;5039487;28;20169;-59
2022/09/15 07:18:22;;;;;;;24.00;4.60;;;;;;;21.41;100.00;96817.16;5039281;28;20035;-56
2022/09/15 07:20:47;;;;;;;25.80;4.03;;;;;;;21.19;100.00;96798.19;5036397;28;20048;-57
2022/09/15 07:23:13;;;;;;;32.67;4.22;;;;;;;20.74;100.00;96816.00;5034730;28;20028;-55
2022/09/15 07:25:42;;;;;;;20.85;3.03;;;;;;;21.06;100.00;96824.31;5038507;28;20041;-56
2022/09/15 07:28:08;;;;;;;26.13;3.58;;;;;;;20.58;100.00;96816.69;5037359;28;20032;-57
2022/09/15 07:30:34;;;;;;;23.17;3.20;;;;;;;20.60;100.00;96830.66;5040760;28;20033;-55
2022/09/15 07:32:59;;;;;;;16.40;2.75;;;;;;;20.71;100.00;96836.66;5039219;28;20028;-55
2022/09/15 07:35:24;;;;;;;19.02;2.50;;;;;;;20.87;100.00;96843.91;5040553;28;20416;-55
2022/09/15 07:37:50;;;;;;;19.73;2.97;;;;;;;21.16;100.00;96840.94;5038301;28;20364;-55
2022/09/15 07:40:16;;;;;;;26.83;3.40;;;;;;;20.84;100.00;96852.97;5038874;28;20506;-55
2022/09/15 07:42:43;;;;;;;21.92;3.00;;;;;;;21.41;100.00;96870.22;5040877;28;20029;-55
2022/09/15 07:45:10;;;;;;;16.15;2.47;;;;;;;21.06;100.00;96872.00;5038124;28;20025;-56
2022/09/15 07:47:35;;;;;;;20.92;2.70;;;;;;;21.36;100.00;96878.66;5039035;28;20012;-55
2022/09/15 07:50:00;;;;;;;22.88;2.80;;;;;;;21.42;100.00;96872.72;5039439;28;20025;-55
2022/09/15 07:52:26;;;;;;;27.20;3.50;;;;;;;21.57;100.00;96886.25;5039650;28;20040;-55
2022/09/15 07:54:51;;;;;;;21.88;2.90;;;;;;;21.93;100.00;96880.75;5037165;28;20025;-55
2022/09/15 07:57:16;;;;;;;20.27;2.90;;;;;;;21.33;100.00;96890.41;5039486;28;20157;-55
2022/09/15 07:59:42;;;;;;;21.23;2.88;;;;;;;21.65;100.00;96898.72;5041464;28;20116;-55
2022/09/15 08:02:17;;;;;;;17.30;2.65;;;;;;;22.04;100.00;96888.41;5039069;28;20127;-56
2022/09/15 08:04:43;;;;;;;24.20;3.13;;;;;;;21.60;100.00;96896.56;5040026;28;20026;-55
2022/09/15 08:07:09;;;;;;;20.23;2.60;;;;;;;20.82;100.00;96902.66;5029327;28;20175;-55
2022/09/15 08:09:36;;;;;;;19.10;2.80;;;;;;;21.51;100.00;96905.47;5038366;28;20105;-56
2022/09/15 08:12:01;;;;;;;19.85;2.72;;;;;;;22.35;100.00;96901.13;5040217;28;20494;-55
2022/09/15 08:14:27;;;;;;;20.15;2.90;;;;;;;21.83;100.00;96910.06;5027291;28;20494;-56
2022/09/15 08:16:52;;;;;;;22.30;3.08;;;;;;;22.12;100.00;96899.03;5037071;28;20036;-57
2022/09/15 08:19:19;;;;;;;19.60;2.75;;;;;;;22.39;100.00;96898.97;5042143;28;20033;-56
2022/09/15 08:21:45;;;;;;;22.90;3.13;;;;;;;21.82;100.00;96904.94;5034782;28;20103;-56
2022/09/15 08:24:10;;;;;;;22.20;2.88;;;;;;;21.93;100.00;96908.13;5038806;28;20546;-54
2022/09/15 08:26:37;;;;;;;17.02;2.42;;;;;;;22.09;100.00;96896.72;5040148;28;20040;-58
2022/09/15 08:29:02;;;;;;;21.30;2.97;;;;;;;21.50;100.00;96906.44;5021504;28;20085;-55
2022/09/15 08:31:28;;;;;;;16.10;2.55;;;;;;;22.24;100.00;96901.38;5039373;28;20045;-56
2022/09/15 08:33:54;;;;;;;25.85;3.45;;;;;;;22.19;100.00;96901.88;5035967;28;20115;-55
2022/09/15 08:36:20;;;;;;;16.98;2.53;;;;;;;22.12;100.00;96900.88;5035862;28;20040;-57
2022/09/15 08:38:46;;;;;;;17.00;2.63;;;;;;;22.20;100.00;96903.53;5034036;28;20037;-54
2022/09/15 08:41:21;;;;;;;19.55;2.63;;;;;;;22.00;100.00;96918.94;5037951;28;20037;-55
2022/09/15 08:43:51;;;;;;;17.17;2.40;;;;;;;21.77;100.00;96939.09;5037460;28;20033;-54
2022/09/15 08:46:23;;;;;;;16.98;2.42;;;;;;;22.05;100.00;96948.47;5034932;28;20134;-54
2022/09/15 08:48:53;;;;;;;;;;;;;;;21.72;100.00;96958.13;5037573;28;20059;-57
2022/09/15 08:51:29;;;;;;;21.98;2.97;;;;;;;21.73;100.00;96954.50;5036883;28;20809;-59
2022/09/15 08:54:01;;;;;;;21.35;3.05;;;;;;;21.92;100.00;96956.06;5038345;28;20459;-55
2022/09/15 08:56:28;;;;;;;19.00;2.92;;;;;;;22.16;100.00;96949.16;5041175;28;20103;-55
2022/09/15 08:58:54;;;;;;;17.35;2.63;;;;;;;22.05;100.00;96959.09;5041599;28;20738;-57
2022/09/15 09:01:32;;;;;;;23.05;3.35;;;;;;;21.81;100.00;96961.66;5036650;28;20040;-57
2022/09/15 09:04:24;;;;;;;17.20;2.85;;;;;;;22.22;100.00;96956.47;5036449;28;20032;-57
2022/09/15 09:07:25;;;;;;;21.23;3.90;;;;;;;21.47;100.00;96970.44;5037930;28;20047;-56
2022/09/15 09:10:14;;;;;;;19.38;3.10;;;;;;;21.63;100.00;96985.59;5041372;28;20287;-56
2022/09/15 09:13:00;;;;;;;15.90;2.70;;;;;;;21.43;100.00;96984.94;5037395;28;20033;-56
2022/09/15 09:16:14;;;;;;;26.02;3.58;;;;;;;21.38;100.00;96983.59;5037373;28;20080;-55
2022/09/15 09:19:10;;;;;;;14.90;2.58;;;;;;;20.70;100.00;96983.41;4976641;28;20048;-58
2022/09/15 09:21:43;;;;;;;21.50;3.15;;;;;;;21.11;100.00;96983.72;5029334;28;20045;-57
2022/09/15 09:24:16;;;;;;;17.02;2.75;;;;;;;20.69;100.00;96971.13;5038980;28;20032;-55
2022/09/15 09:26:47;;;;;;;20.95;3.17;;;;;;;21.21;100.00;96987.16;5039189;28;20048;-55
2022/09/15 09:29:17;;;;;;;22.00;3.03;;;;;;;21.15;100.00;96982.44;5038137;28;20053;-56
2022/09/15 09:31:46;;;;;;;35.17;4.50;;;;;;;21.33;100.00;96977.94;5038014;28;20037;-55
2022/09/15 09:34:30;;;;;;;22.73;3.30;;;;;;;21.16;100.00;96978.81;5041599;28;20037;-58
2022/09/15 09:37:07;;;;;;;16.25;2.67;;;;;;;21.27;100.00;96975.91;5042727;28;20080;-55
2022/09/15 09:39:33;;;;;;;18.75;2.92;;;;;;;21.58;100.00;96971.97;5045340;28;20036;-55
2022/09/15 09:41:58;;;;;;;21.55;3.17;;;;;;;21.72;100.00;96980.16;5041254;28;20038;-55
2022/09/15 09:44:30;;;;;;;17.60;2.90;;;;;;;21.42;100.00;96973.50;5045833;28;20038;-56
2022/09/15 09:47:05;;;;;;;20.20;2.90;;;;;;;21.23;100.00;96969.25;5045035;28;20107;-56
2022/09/15 09:49:39;;;;;;;21.67;3.03;;;;;;;21.28;100.00;96988.16;5038933;28;20083;-57
2022/09/15 09:52:04;;;;;;;18.95;2.90;;;;;;;21.78;100.00;96989.34;5040419;28;20044;-58
2022/09/15 09:54:32;;;;;;;21.35;3.00;;;;;;;21.57;100.00;96992.38;5041705;28;20024;-57
2022/09/15 09:57:31;;;;;;;19.80;3.03;;;;;;;21.43;100.00;96985.81;5044467;28;20135;-56
2022/09/15 09:59:57;;;;;;;32.08;4.10;;;;;;;21.06;100.00;96988.66;5024740;28;20102;-55
2022/09/15 10:02:26;;;;;;;21.58;3.60;;;;;;;21.10;100.00;96987.34;5037814;28;20810;-55
2022/09/15 10:04:52;;;;;;;26.38;4.05;;;;;;;21.41;100.00;96984.28;5034750;28;20025;-57
2022/09/15 10:07:21;;;;;;;19.50;2.95;;;;;;;21.36;100.00;96980.28;5040244;28;20451;-57
2022/09/15 10:09:58;;;;;;;16.45;2.80;;;;;;;21.92;100.00;96974.63;5041302;28;20021;-56
2022/09/15 10:12:39;;;;;;;20.13;3.05;;;;;;;21.71;100.00;96978.53;5042646;28;20537;-57
2022/09/15 10:15:19;;;;;;;22.25;3.60;;;;;;;21.71;100.00;96977.69;5037461;28;20032;-60
2022/09/15 10:17:47;;;;;;;19.33;3.10;;;;;;;22.01;100.00;96973.69;5035240;28;20032;-56
2022/09/15 10:20:34;;;;;;;21.05;3.28;;;;;;;22.35;100.00;96983.47;5036235;28;20674;-57
2022/09/15 10:23:18;;;;;;;19.58;3.00;;;;;;;22.24;100.00;96978.41;5037615;28;20065;-55
2022/09/15 10:25:44;;;;;;;20.30;2.90;;;;;;;22.01;100.00;96992.25;5041243;28;20041;-56
2022/09/15 10:28:13;;;;;;;18.90;2.80;;;;;;;21.72;100.00;96989.97;5024724;28;20055;-56
2022/09/15 10:30:56;;;;;;;18.50;2.80;;;;;;;21.77;100.00;96987.69;5039914;28;20124;-55
2022/09/15 10:33:27;;;;;;;30.42;3.95;;;;;;;21.57;100.00;96989.72;5037368;28;20028;-55
2022/09/15 10:35:54;;;;;;;27.83;3.70;;;;;;;21.84;100.00;96979.91;5034282;28;20632;-58
2022/09/15 10:38:48;;;;;;;20.35;2.95;;;;;;;21.60;100.00;96986.75;5029658;28;20628;-55
2022/09/15 10:41:36;;;;;;;21.63;3.13;;;;;;;21.63;100.00;96983.78;5036687;28;20041;-56
2022/09/15 10:44:33;;;;;;;24.02;3.35;;;;;;;22.01;100.00;96971.03;5037702;28;20020;-58
2022/09/15 10:47:24;;;;;;;23.83;3.33;;;;;;;22.01;100.00;96973.69;5037090;28;20071;-59
2022/09/15 10:50:33;;;;;;;63.00;7.43;;;;;;;21.62;100.00;96984.78;5028908;28;21014;-56
2022/09/15 10:53:26;;;;;;;22.55;3.50;;;;;;;21.74;100.00;96977.38;4975351;28;20406;-56
2022/09/15 10:56:24;;;;;;;13.80;2.42;;;;;;;22.00;100.00;96982.66;5034400;28;20051;-61
2022/09/15 10:59:14;;;;;;;17.35;3.00;;;;;;;22.01;100.00;96984.31;5034632;28;20033;-60
2022/09/15 11:01:47;;;;;;;24.02;3.65;;;;;;;21.89;100.00;96974.94;5015889;28;20744;-57
2022/09/15 11:04:43;;;;;;;26.25;4.25;;;;;;;21.99;100.00;96969.53;5036885;28;20025;-59
2022/09/15 11:07:23;;;;;;;29.13;4.50;;;;;;;22.50;100.00;96973.88;5038140;28;20041;-58
2022/09/15 11:10:04;;;;;;;23.23;3.40;;;;;;;22.66;100.00;96967.75;5020741;28;20020;-59
2022/09/15 11:12:45;;;;;;;30.77;4.20;;;;;;;22.49;100.00;96966.88;5037684;28;20043;-60
2022/09/15 11:15:13;;;;;;;21.80;3.42;;;;;;;22.97;100.00;96959.09;5035296;28;20812;-56
2022/09/15 11:18:06;;;;;;;21.90;3.25;;;;;;;22.58;100.00;96969.56;5030442;28;20040;-54
2022/09/15 11:20:57;;;;;;;19.88;3.15;;;;;;;23.04;100.00;96975.28;5033633;28;20624;-56
2022/09/15 11:23:38;;;;;;;29.60;4.03;;;;;;;22.80;100.00;96979.56;5036329;28;20596;-56
2022/09/15 11:26:11;;;;;;;27.45;4.00;;;;;;;22.09;100.00;96968.41;5037312;28;20760;-59
2022/09/15 11:28:49;;;;;;;28.70;4.22;;;;;;;22.65;100.00;96965.25;5036787;28;20029;-55
2022/09/15 11:31:38;;;;;;;23.08;3.35;;;;;;;22.12;100.00;96964.59;5036859;28;20053;-56
2022/09/15 11:34:18;;;;;;;26.05;4.07;;;;;;;22.87;100.00;96964.59;5038013;28;20060;-56
2022/09/15 11:36:49;;;;;;;34.38;4.70;;;;;;;22.98;100.00;96966.09;5033125;28;20128;-60